This is the latest recevied weather packets stored in our database for station/object BMCB-2. If no packets are shown the sender has not sent any weather packets the latest 10 day(s).
| Time | Temp. | Humidity | Pressure | Rain* | Wind** | Luminosity | Snow |
|---|---|---|---|---|---|---|---|
| 1777440054 | 6.67° C | 71% | 1023.2 hPa | 0 mm | - | 54 W/m² | - |
| 1777438256 | 6.11° C | 72% | 1023.2 hPa | 0 mm | - | 16 W/m² | - |
| 1777437655 | 6.67° C | 71% | 1023.1 hPa | 0 mm | - | 10 W/m² | - |
| 1777436456 | 6.67° C | 71% | 1023 hPa | 0 mm | - | 2 W/m² | - |
| 1777435257 | 6.67° C | 72% | 1022.9 hPa | 0 mm | - | 0 W/m² | - |
| 1777434056 | 6.67° C | 73% | 1022.9 hPa | 0 mm | - | 0 W/m² | - |
| 1777432855 | 6.67° C | 74% | 1022.8 hPa | 0 mm | - | 0 W/m² | - |
| 1777431054 | 7.22° C | 73% | 1022.6 hPa | 0 mm | - | 0 W/m² | - |
| 1777425055 | 8.33° C | 72% | 1022.4 hPa | 0 mm | - | 0 W/m² | - |
| 1777422655 | 8.89° C | 68% | 1022.3 hPa | 0 mm | - | 0 W/m² | - |
| 1777422053 | 8.89° C | 68% | 1022.3 hPa | 0 mm | - | 0 W/m² | - |
| 1777419061 | 9.44° C | 67% | 1022.4 hPa | 0 mm | - | 0 W/m² | - |
| 1777414861 | 11.67° C | 58% | 1021.7 hPa | 0 mm | - | 0 W/m² | - |
| 1777409466 | 13.33° C | 54% | 1021.2 hPa | 0 mm | - | 0 W/m² | - |
| 1777407665 | 13.89° C | 52% | 1021.1 hPa | 0 mm | - | 0 W/m² | - |
| 1777402863 | 15° C | 49% | 1019.8 hPa | 0 mm | - | 4 W/m² | - |
| 1777401067 | 15.56° C | 48% | 1019.5 hPa | 0 mm | - | 24 W/m² | - |
| 1777399859 | 16.11° C | 48% | 1019.3 hPa | 0 mm | - | 52 W/m² | - |
| 1777398064 | 17.22° C | 47% | 1018.9 hPa | 0 mm | - | 108 W/m² | - |
| 1777390258 | 18.89° C | 44% | 1018.2 hPa | 0 mm | - | 406 W/m² | - |
| 1777383655 | 17.78° C | 48% | 1019.2 hPa | 0 mm | - | 616 W/m² | - |
| 1777382455 | 17.22° C | 50% | 1019.3 hPa | 0 mm | - | 662 W/m² | - |
| 1777381854 | 17.22° C | 49% | 1019.3 hPa | 0 mm | - | 652 W/m² | - |
| 1777378258 | 16.67° C | 50% | 1019.5 hPa | 0 mm | - | 710 W/m² | - |
| 1777377056 | 16.67° C | 48% | 1019.5 hPa | 0 mm | - | 670 W/m² | - |
* Rain latest hour (hover to see other rain measurements)
** Current wind speed in m/s (hover to see current wind gust speed)